Accueil
METAR-TAF:

METAR-TAF

Aéroports :

Aéroport international Dr. Joaquin Balaguer

Saint-Domingue, République dominicaine

latitude: 18-34-32N, longitude: 069-58-53W, altitude: 15 m

Observation

Le bulletin a été fait il y a 30 minutes, à 13:00 UTC
Vent calme
Température 28°C
Humidité 79%
Pression 1016 hPa
Visibilité 10 km ou plus
Quelques nuages à une hauteur de 1800 ft

METAR: MDJB 011300Z 00000KT 9999 FEW018 28/24 Q1016

Heure: 09:30 (13:30 UTC)

Prévision

Prévision valable du 01 à 10 UTC au 02 à 00 UTC
Vent kt de nord
Visibilité 10 km ou plus
Quelques nuages à une hauteur de 1800 ft

TAF: MDJB 011000 0112/0212 00000KT 9999 FEW018

Observations et prévisions météorologiques de plus de 4000 aéroports (messages METAR et TAF).

Les stations disponibles sont représentées par des disques jaunes et rouges sur la carte.

Passer la souris dessus pour voir le nom de la station.

Cliquer dessus pour voir les observations et prévisions météorologiques.

Pour changer de carte: cliquez sur les boutons verts avec une croix noire pour zoomer, sur le bouton vert avec un tiret pour effectuer un zoom arrière, ou sur les flèches vertes pour les cartes adjacentes.


METAR-TAF: